createdAt,value
2019-03-08T00:00:34.196Z,98531.73
2019-03-08T00:03:02.827Z,98523.67
2019-03-08T00:05:31.242Z,98534.05
2019-03-08T00:07:59.699Z,98535.41
2019-03-08T00:10:28.092Z,98540.92
2019-03-08T00:12:56.541Z,98546.62
2019-03-08T00:15:24.979Z,98560.11
2019-03-08T00:17:53.633Z,98551.27
2019-03-08T00:20:21.980Z,98548.93
2019-03-08T00:22:50.439Z,98566.72
2019-03-08T00:25:18.850Z,98563.58
2019-03-08T00:27:47.297Z,98578.67
2019-03-08T00:30:15.882Z,98569.71
2019-03-08T00:32:44.505Z,98573.23
2019-03-08T00:35:13.092Z,98580.88
2019-03-08T00:37:41.475Z,98579.36
2019-03-08T00:40:14.443Z,98584.02
2019-03-08T00:42:42.864Z,98580.43
2019-03-08T00:45:14.424Z,98582.95
2019-03-08T00:47:43.652Z,98585.48
2019-03-08T00:50:12.170Z,98587.53
2019-03-08T00:52:40.584Z,98592.55
2019-03-08T00:55:13.113Z,98597.53
2019-03-08T00:57:41.537Z,98597.48
2019-03-08T01:00:17.377Z,98595.52
2019-03-08T01:02:45.784Z,98605.84
2019-03-08T01:05:14.233Z,98613.77
2019-03-08T01:07:42.667Z,98608.13
2019-03-08T01:10:19.836Z,98615.20
2019-03-08T01:12:48.427Z,98619.56
2019-03-08T01:15:18.045Z,98625.98
2019-03-08T01:17:46.531Z,98628.11
2019-03-08T01:20:17.168Z,98629.42
2019-03-08T01:22:45.664Z,98640.33
2019-03-08T01:25:14.791Z,98639.77
2019-03-08T01:27:59.633Z,98630.38
2019-03-08T01:30:28.251Z,98639.11
2019-03-08T01:32:56.750Z,98637.14
2019-03-08T01:35:25.292Z,98642.69
2019-03-08T01:37:53.919Z,98648.70
2019-03-08T01:40:22.440Z,98654.20
2019-03-08T01:42:50.942Z,98659.72
2019-03-08T01:45:19.466Z,98666.23
2019-03-08T01:47:47.957Z,98664.34
2019-03-08T01:50:16.474Z,98663.44
2019-03-08T01:52:45.066Z,98662.30
2019-03-08T01:55:13.511Z,98675.20
2019-03-08T01:57:41.991Z,98678.05
2019-03-08T02:00:13.552Z,98673.00
2019-03-08T02:02:42.029Z,98683.84
2019-03-08T02:05:10.649Z,98673.25
2019-03-08T02:07:39.077Z,98684.63
2019-03-08T02:10:10.489Z,98679.03
2019-03-08T02:12:38.908Z,98682.47
2019-03-08T02:15:10.497Z,98671.76
2019-03-08T02:17:38.965Z,98678.55
2019-03-08T02:20:10.598Z,98687.05
2019-03-08T02:22:39.120Z,98683.66
2019-03-08T02:25:07.704Z,98683.74
2019-03-08T02:27:36.220Z,98686.55
2019-03-08T02:30:07.512Z,98688.91
2019-03-08T02:32:35.908Z,98690.01
2019-03-08T02:35:05.569Z,98689.20
2019-03-08T02:37:34.086Z,98689.12
2019-03-08T02:40:02.506Z,98690.50
2019-03-08T02:42:33.369Z,98697.52
2019-03-08T02:45:02.063Z,98699.14
2019-03-08T02:47:30.778Z,98694.13
2019-03-08T02:49:59.214Z,98696.94
2019-03-08T02:52:27.594Z,98700.89
2019-03-08T02:54:56.020Z,98706.37
2019-03-08T02:57:24.398Z,98698.33
2019-03-08T02:59:52.755Z,98694.54
2019-03-08T03:02:21.215Z,98693.97
2019-03-08T03:04:49.634Z,98714.72
2019-03-08T03:07:18.080Z,98701.97
2019-03-08T03:09:46.429Z,98699.20
2019-03-08T03:12:14.804Z,98706.19
2019-03-08T03:14:43.222Z,98706.66
2019-03-08T03:17:12.017Z,98694.42
2019-03-08T03:19:40.432Z,98708.88
2019-03-08T03:22:08.882Z,98706.07
2019-03-08T03:24:37.305Z,98704.15
2019-03-08T03:27:05.722Z,98704.38
2019-03-08T03:29:34.110Z,98713.78
2019-03-08T03:32:02.958Z,98706.31
2019-03-08T03:34:31.490Z,98718.16
2019-03-08T03:36:59.982Z,98714.33
2019-03-08T03:39:28.389Z,98730.20
2019-03-08T03:41:56.809Z,98733.59
2019-03-08T03:44:25.345Z,98726.53
2019-03-08T03:46:54.110Z,98731.83
2019-03-08T03:49:22.642Z,98726.38
2019-03-08T03:51:51.065Z,98730.91
2019-03-08T03:54:19.469Z,98739.33
2019-03-08T03:56:47.919Z,98741.58
2019-03-08T03:59:16.350Z,98725.23
2019-03-08T04:01:47.023Z,98729.34
2019-03-08T04:04:15.556Z,98734.91
2019-03-08T04:06:44.043Z,98737.27
2019-03-08T04:09:13.078Z,98754.14
2019-03-08T04:11:41.869Z,98756.55
2019-03-08T04:14:10.316Z,98750.86
2019-03-08T04:16:38.911Z,98751.92
2019-03-08T04:19:07.382Z,98742.87
2019-03-08T04:21:35.721Z,98756.83
2019-03-08T04:24:04.257Z,98762.27
2019-03-08T04:26:32.746Z,98768.27
2019-03-08T04:29:01.205Z,98773.41
2019-03-08T04:31:29.800Z,98768.44
2019-03-08T04:33:58.254Z,98777.52
2019-03-08T04:36:26.676Z,98780.87
2019-03-08T04:38:55.028Z,98781.22
2019-03-08T04:41:23.555Z,98790.78
2019-03-08T04:43:52.042Z,98771.27
2019-03-08T04:46:20.855Z,98785.28
2019-03-08T04:48:49.201Z,98775.22
2019-03-08T04:51:17.669Z,98793.94
2019-03-08T04:53:46.094Z,98792.63
2019-03-08T04:56:14.540Z,98805.28
2019-03-08T04:58:42.890Z,98804.23
2019-03-08T05:01:11.518Z,98805.89
2019-03-08T05:03:39.950Z,98798.68
2019-03-08T05:06:09.613Z,98808.06
2019-03-08T05:08:38.048Z,98816.92
2019-03-08T05:11:06.493Z,98817.26
2019-03-08T05:13:34.846Z,98819.52
2019-03-08T05:16:03.579Z,98819.39
2019-03-08T05:18:33.033Z,98832.71
2019-03-08T05:21:01.599Z,98831.41
2019-03-08T05:23:30.019Z,98827.81
2019-03-08T05:25:58.550Z,98838.39
2019-03-08T05:28:26.904Z,98829.25
2019-03-08T05:30:55.429Z,98833.58
2019-03-08T05:33:23.855Z,98837.62
2019-03-08T05:35:52.241Z,98843.84
2019-03-08T05:38:20.603Z,98842.15
2019-03-08T05:40:49.110Z,98843.36
2019-03-08T05:43:17.601Z,98844.13
2019-03-08T05:45:46.116Z,98851.52
2019-03-08T05:48:14.456Z,98846.72
2019-03-08T05:50:42.833Z,98850.34
2019-03-08T05:53:11.319Z,98858.92
2019-03-08T05:55:39.838Z,98858.77
2019-03-08T05:58:08.244Z,98864.60
2019-03-08T06:00:36.658Z,98860.67
2019-03-08T06:03:05.194Z,98855.95
2019-03-08T06:05:33.557Z,98855.17
2019-03-08T06:08:01.957Z,98870.89
2019-03-08T06:10:32.147Z,98872.42
2019-03-08T06:13:01.869Z,98871.86
2019-03-08T06:15:30.292Z,98878.23
2019-03-08T06:17:59.717Z,98880.77
2019-03-08T06:20:28.142Z,98879.63
2019-03-08T06:22:56.594Z,98893.42
2019-03-08T06:25:25.027Z,98883.30
2019-03-08T06:27:53.482Z,98893.77
2019-03-08T06:30:21.970Z,98902.08
2019-03-08T06:32:50.806Z,98903.28
2019-03-08T06:35:19.374Z,98910.89
2019-03-08T06:37:47.892Z,98906.05
2019-03-08T06:40:18.281Z,98902.89
2019-03-08T06:42:47.553Z,98921.33
2019-03-08T06:45:18.666Z,98920.88
2019-03-08T06:47:47.403Z,98918.20
2019-03-08T06:50:16.224Z,98925.91
2019-03-08T06:52:44.685Z,98941.33
2019-03-08T06:55:14.383Z,98943.09
2019-03-08T06:57:42.840Z,98951.00
2019-03-08T07:00:16.005Z,98961.20
2019-03-08T07:02:44.471Z,98956.53
2019-03-08T07:05:12.894Z,98966.09
2019-03-08T07:07:41.331Z,98964.04
2019-03-08T07:10:09.779Z,98968.70
2019-03-08T07:12:38.126Z,98989.86
2019-03-08T07:15:06.795Z,98978.27
2019-03-08T07:17:35.436Z,98985.75
2019-03-08T07:20:08.608Z,98977.92
2019-03-08T07:22:55.162Z,98992.63
2019-03-08T07:25:37.658Z,98998.09
2019-03-08T07:28:26.250Z,99003.52
2019-03-08T07:31:12.869Z,98998.17
2019-03-08T07:33:52.963Z,99020.63
2019-03-08T07:36:24.829Z,99022.41
2019-03-08T07:39:10.197Z,99026.25
2019-03-08T07:41:40.517Z,99033.45
2019-03-08T07:44:22.934Z,99040.12
2019-03-08T07:46:55.683Z,99044.43
2019-03-08T07:49:34.423Z,99061.34
2019-03-08T07:52:07.521Z,99077.81
2019-03-08T07:54:54.173Z,99077.11
2019-03-08T07:57:26.648Z,99069.58
2019-03-08T08:00:05.677Z,99075.00
2019-03-08T08:02:38.791Z,99078.00
2019-03-08T08:05:09.656Z,99082.62
2019-03-08T08:07:39.714Z,99098.31
2019-03-08T08:10:18.144Z,99101.99
2019-03-08T08:12:50.553Z,99093.48
2019-03-08T08:15:29.499Z,99102.08
2019-03-08T08:18:02.267Z,99122.48
2019-03-08T08:20:32.471Z,99117.87
2019-03-08T08:23:07.990Z,99127.22
2019-03-08T08:25:43.900Z,99127.29
2019-03-08T08:28:19.847Z,99133.97
2019-03-08T08:31:01.551Z,99132.80
2019-03-08T08:33:31.543Z,99141.69
2019-03-08T08:36:01.571Z,99149.20
2019-03-08T08:38:31.642Z,99150.20
2019-03-08T08:41:10.519Z,99155.12
2019-03-08T08:43:43.207Z,99160.16
2019-03-08T08:46:19.086Z,99167.51
2019-03-08T08:48:57.630Z,99167.98
2019-03-08T08:51:30.731Z,99177.47
2019-03-08T08:54:03.461Z,99180.00
2019-03-08T08:56:36.264Z,99193.80
2019-03-08T08:59:12.414Z,99196.74
2019-03-08T09:01:42.513Z,99195.51
2019-03-08T09:04:30.635Z,99200.92
2019-03-08T09:07:12.798Z,99202.02
2019-03-08T09:09:43.222Z,99202.72
2019-03-08T09:12:22.241Z,99208.34
2019-03-08T09:15:07.277Z,99224.58
2019-03-08T09:17:52.382Z,99218.36
2019-03-08T09:20:22.495Z,99216.99
2019-03-08T09:22:52.516Z,99231.06
2019-03-08T09:25:22.686Z,99226.85
2019-03-08T09:27:58.652Z,99232.83
2019-03-08T09:30:34.286Z,99239.37
2019-03-08T09:33:06.988Z,99239.84
2019-03-08T09:35:37.021Z,99249.17
2019-03-08T09:38:19.658Z,99255.42
2019-03-08T09:41:07.713Z,99251.98
2019-03-08T09:43:40.423Z,99264.31
2019-03-08T09:46:22.830Z,99264.08
2019-03-08T09:49:05.225Z,99274.05
2019-03-08T09:51:41.046Z,99284.94
2019-03-08T09:54:11.191Z,99281.67
2019-03-08T09:56:41.290Z,99282.27
2019-03-08T09:59:16.809Z,99286.18
2019-03-08T10:01:49.284Z,99296.98
2019-03-08T10:04:22.209Z,99284.61
2019-03-08T10:07:04.012Z,99297.21
2019-03-08T10:09:39.615Z,99296.17
2019-03-08T10:12:18.547Z,99308.05
2019-03-08T10:14:57.577Z,99309.15
2019-03-08T10:17:30.298Z,99305.80
2019-03-08T10:20:12.405Z,99301.69
2019-03-08T10:22:42.607Z,99313.03
2019-03-08T10:25:12.697Z,99312.82
2019-03-08T10:27:45.339Z,99314.52
2019-03-08T10:30:15.336Z,99310.88
2019-03-08T10:32:45.359Z,99322.27
2019-03-08T10:35:27.918Z,99313.77
2019-03-08T10:38:06.734Z,99321.91
2019-03-08T10:40:39.555Z,99304.17
2019-03-08T10:43:09.567Z,99308.05
2019-03-08T10:45:39.637Z,99318.48
2019-03-08T10:48:12.397Z,99322.11
2019-03-08T10:50:45.080Z,99320.09
2019-03-08T10:53:33.350Z,99319.56
2019-03-08T10:56:12.094Z,99313.80
2019-03-08T10:58:58.745Z,99324.95
2019-03-08T11:01:34.857Z,99347.63
2019-03-08T11:04:14.914Z,99345.45
2019-03-08T11:06:45.050Z,99349.62
2019-03-08T11:09:29.069Z,99336.64
2019-03-08T11:11:59.145Z,99347.23
2019-03-08T11:14:31.618Z,99345.55
2019-03-08T11:17:10.400Z,99365.77
2019-03-08T11:19:52.097Z,99372.78
2019-03-08T11:22:36.961Z,99382.47
2019-03-08T11:25:34.570Z,99367.61
2019-03-08T11:28:20.941Z,99371.91
2019-03-08T11:31:03.781Z,99361.15
2019-03-08T11:33:42.760Z,99366.13
2019-03-08T11:36:12.853Z,99374.22
2019-03-08T11:38:52.142Z,99377.92
2019-03-08T11:41:22.204Z,99380.76
2019-03-08T11:44:03.976Z,99386.53
2019-03-08T11:46:36.784Z,99393.14
2019-03-08T11:49:06.870Z,99389.05
2019-03-08T11:51:42.758Z,99405.74
2019-03-08T11:54:21.910Z,99393.30
2019-03-08T11:57:03.463Z,99378.89
2019-03-08T11:59:49.927Z,99407.56
2019-03-08T12:02:38.030Z,99416.16
2019-03-08T12:05:13.228Z,99410.62
2019-03-08T12:07:49.149Z,99426.44
2019-03-08T12:10:25.463Z,99418.28
2019-03-08T12:12:55.519Z,99422.77
2019-03-08T12:15:37.541Z,99429.89
2019-03-08T12:18:07.524Z,99420.33
2019-03-08T12:20:49.563Z,99429.63
2019-03-08T12:23:22.735Z,99425.64
2019-03-08T12:25:55.694Z,99425.16
2019-03-08T12:28:28.443Z,99419.86
2019-03-08T12:30:58.505Z,99428.94
2019-03-08T12:33:34.498Z,99434.24
2019-03-08T12:36:21.149Z,99428.32
2019-03-08T12:38:56.742Z,99426.39
2019-03-08T12:41:41.917Z,99421.65
2019-03-08T12:44:23.739Z,99419.06
2019-03-08T12:47:09.684Z,99422.53
2019-03-08T12:49:42.558Z,99423.61
2019-03-08T12:52:12.543Z,99421.66
2019-03-08T12:54:51.148Z,99407.53
2019-03-08T12:57:24.211Z,99396.81
2019-03-08T12:59:57.007Z,99390.51
2019-03-08T13:02:27.301Z,99415.47
2019-03-08T13:04:59.135Z,99391.98
2019-03-08T13:07:32.121Z,99382.13
2019-03-08T13:10:11.968Z,99399.21
2019-03-08T13:12:43.468Z,99398.23
2019-03-08T13:15:17.999Z,99410.05
2019-03-08T13:17:47.448Z,99403.11
2019-03-08T13:20:18.202Z,99443.59
2019-03-08T13:22:46.686Z,99438.42
2019-03-08T13:25:15.301Z,99433.00
2019-03-08T13:27:47.200Z,99441.16
2019-03-08T13:30:24.388Z,99431.70
2019-03-08T13:32:53.737Z,99439.70
2019-03-08T13:35:24.288Z,99439.47
2019-03-08T13:37:53.151Z,99431.59
2019-03-08T13:40:22.188Z,99421.02
2019-03-08T13:42:51.169Z,99420.00
2019-03-08T13:45:21.645Z,99415.54
2019-03-08T13:47:50.247Z,99419.30
2019-03-08T13:50:18.974Z,99417.68
2019-03-08T13:52:48.817Z,99413.12
2019-03-08T13:55:19.257Z,99415.21
2019-03-08T13:57:47.774Z,99423.83
2019-03-08T14:00:20.789Z,99407.20
2019-03-08T14:02:49.350Z,99412.06
2019-03-08T14:05:18.865Z,99408.95
2019-03-08T14:07:47.268Z,99419.59
2019-03-08T14:10:17.594Z,99415.55
2019-03-08T14:12:46.407Z,99409.25
2019-03-08T14:15:18.654Z,99409.04
2019-03-08T14:17:51.868Z,99413.06
2019-03-08T14:20:27.623Z,99399.87
2019-03-08T14:22:56.625Z,99395.83
2019-03-08T14:25:25.779Z,99387.09
2019-03-08T14:27:56.549Z,99379.73
2019-03-08T14:30:32.188Z,99391.37
2019-03-08T14:33:03.215Z,99389.73
2019-03-08T14:35:32.231Z,99376.61
2019-03-08T14:38:00.848Z,99374.48
2019-03-08T14:40:37.026Z,99390.32
2019-03-08T14:43:19.299Z,99388.31
2019-03-08T14:45:51.418Z,99369.20
2019-03-08T14:48:20.460Z,99377.38
2019-03-08T14:50:49.010Z,99369.11
2019-03-08T14:53:19.084Z,99362.27
2019-03-08T14:55:55.108Z,99362.62
2019-03-08T14:58:23.915Z,99338.11
2019-03-08T15:00:56.404Z,99358.05
2019-03-08T15:03:26.924Z,99374.91
2019-03-08T15:05:59.261Z,99367.66
2019-03-08T15:08:28.936Z,99367.50
2019-03-08T15:11:02.726Z,99376.04
2019-03-08T15:13:34.391Z,99376.98
2019-03-08T15:16:04.968Z,99373.14
2019-03-08T15:18:36.419Z,99386.83
2019-03-08T15:21:05.200Z,99393.20
2019-03-08T15:23:34.144Z,99389.73
2019-03-08T15:26:02.660Z,99386.38
2019-03-08T15:28:32.114Z,99378.48
2019-03-08T15:31:00.580Z,99368.53
2019-03-08T15:33:29.244Z,99363.76
2019-03-08T15:35:58.690Z,99377.17
2019-03-08T15:38:27.962Z,99380.83
2019-03-08T15:40:58.959Z,99376.52
2019-03-08T15:43:30.945Z,99369.86
2019-03-08T15:46:02.218Z,99369.47
2019-03-08T15:48:40.234Z,99370.62
2019-03-08T15:51:09.126Z,99365.54
2019-03-08T15:53:40.188Z,99372.11
2019-03-08T15:56:11.198Z,99366.44
2019-03-08T15:58:40.221Z,99384.86
2019-03-08T16:01:13.978Z,99379.69
2019-03-08T16:03:44.420Z,99381.52
2019-03-08T16:06:14.389Z,99386.17
2019-03-08T16:08:43.550Z,99388.22
2019-03-08T16:11:12.520Z,99396.83
2019-03-08T16:13:40.909Z,99384.00
2019-03-08T16:16:10.007Z,99398.30
2019-03-08T16:18:44.455Z,99397.92
2019-03-08T16:21:13.081Z,99403.47
2019-03-08T16:23:41.440Z,99408.20
2019-03-08T16:26:09.848Z,99398.21
2019-03-08T16:28:40.202Z,99396.09
2019-03-08T16:31:21.789Z,99405.69
2019-03-08T16:33:59.116Z,99391.09
2019-03-08T16:36:39.336Z,99398.55
2019-03-08T16:39:16.860Z,99401.73
2019-03-08T16:41:49.156Z,99399.36
2019-03-08T16:44:34.448Z,99396.02
2019-03-08T16:47:13.860Z,99399.95
2019-03-08T16:50:00.698Z,99394.84
2019-03-08T16:52:44.352Z,99405.02
2019-03-08T16:55:22.097Z,99406.64
2019-03-08T16:57:53.690Z,99403.55
2019-03-08T17:00:37.199Z,99406.86
2019-03-08T17:03:07.501Z,99405.08
2019-03-08T17:05:37.881Z,99410.88
2019-03-08T17:08:16.948Z,99418.90
2019-03-08T17:10:56.171Z,99426.45
2019-03-08T17:13:26.744Z,99417.13
2019-03-08T17:16:13.584Z,99421.94
2019-03-08T17:18:49.824Z,99425.92
2019-03-08T17:21:28.416Z,99418.95
2019-03-08T17:24:10.662Z,99418.88
2019-03-08T17:26:41.297Z,99417.92
2019-03-08T17:29:11.327Z,99413.07
2019-03-08T17:31:50.234Z,99407.88
2019-03-08T17:34:36.380Z,99422.73
2019-03-08T17:37:15.775Z,99420.58
2019-03-08T17:39:51.634Z,99415.98
2019-03-08T17:42:27.577Z,99415.53
2019-03-08T17:45:00.434Z,99417.05
2019-03-08T17:47:33.113Z,99426.30
2019-03-08T17:50:03.211Z,99438.88
2019-03-08T17:52:49.500Z,99443.28
2019-03-08T17:55:22.537Z,99435.19
2019-03-08T17:58:01.456Z,99442.89
2019-03-08T18:00:44.120Z,99444.91
2019-03-08T18:03:14.241Z,99445.07
2019-03-08T18:05:56.095Z,99447.36
2019-03-08T18:08:44.076Z,99450.44
2019-03-08T18:11:20.337Z,99454.59
2019-03-08T18:13:50.414Z,99456.54
2019-03-08T18:16:23.258Z,99455.67
2019-03-08T18:18:59.148Z,99462.25
2019-03-08T18:21:29.374Z,99462.73
2019-03-08T18:23:59.612Z,99458.52
2019-03-08T18:26:48.469Z,99462.73
2019-03-08T18:29:34.436Z,99472.02
2019-03-08T18:32:20.840Z,99464.09
2019-03-08T18:34:51.267Z,99469.72
2019-03-08T18:37:31.216Z,99464.76
2019-03-08T18:40:07.440Z,99471.77
2019-03-08T18:42:54.356Z,99466.62
2019-03-08T18:45:39.661Z,99468.83
2019-03-08T18:48:15.669Z,99471.88
2019-03-08T18:50:57.473Z,99474.95
2019-03-08T18:53:45.334Z,99473.01
2019-03-08T18:56:15.919Z,99474.98
2019-03-08T18:58:46.147Z,99478.12
2019-03-08T19:01:22.252Z,99476.23
2019-03-08T19:04:00.949Z,99483.01
2019-03-08T19:06:37.014Z,99479.03
2019-03-08T19:09:08.660Z,99480.69
2019-03-08T19:11:51.250Z,99472.12
2019-03-08T19:14:37.478Z,99461.67
2019-03-08T19:17:07.579Z,99470.75
2019-03-08T19:19:37.648Z,99479.31
2019-03-08T19:22:26.621Z,99478.32
2019-03-08T19:25:02.283Z,99471.77
2019-03-08T19:27:32.367Z,99478.25
2019-03-08T19:30:11.719Z,99481.19
2019-03-08T19:32:53.652Z,99477.72
2019-03-08T19:35:24.201Z,99473.39
2019-03-08T19:37:57.049Z,99475.31
2019-03-08T19:40:35.817Z,99480.85
2019-03-08T19:43:05.838Z,99475.84
2019-03-08T19:45:44.770Z,99473.24
2019-03-08T19:48:32.574Z,99483.09
2019-03-08T19:51:18.063Z,99471.94
2019-03-08T19:53:51.143Z,99457.71
2019-03-08T19:56:37.622Z,99465.62
2019-03-08T19:59:27.065Z,99469.44
2019-03-08T20:02:13.626Z,99465.73
2019-03-08T20:04:46.399Z,99467.80
2019-03-08T20:07:35.787Z,99470.47
2019-03-08T20:10:20.558Z,99465.31
2019-03-08T20:13:02.373Z,99468.15
2019-03-08T20:15:48.657Z,99474.29
2019-03-08T20:18:24.956Z,99467.61
2019-03-08T20:21:10.215Z,99463.22
2019-03-08T20:23:45.797Z,99472.77
2019-03-08T20:26:21.441Z,99462.82
2019-03-08T20:29:06.269Z,99473.97
2019-03-08T20:31:36.797Z,99471.75
2019-03-08T20:34:22.508Z,99470.38
2019-03-08T20:36:55.365Z,99466.92
2019-03-08T20:39:31.042Z,99467.36
2019-03-08T20:42:01.115Z,99463.30
2019-03-08T20:44:43.212Z,99456.21
2019-03-08T20:47:19.240Z,99454.91
2019-03-08T20:49:47.662Z,99450.61
2019-03-08T20:52:16.566Z,99443.28
2019-03-08T20:54:44.943Z,99439.31
2019-03-08T20:57:13.794Z,99441.83
2019-03-08T20:59:42.347Z,99444.22
2019-03-08T21:02:10.771Z,99443.53
2019-03-08T21:04:39.171Z,99447.60
2019-03-08T21:07:07.696Z,99438.59
2019-03-08T21:09:36.400Z,99439.91
2019-03-08T21:12:04.958Z,99436.28
2019-03-08T21:14:33.486Z,99445.28
2019-03-08T21:17:02.233Z,99443.91
2019-03-08T21:19:30.623Z,99447.06
2019-03-08T21:21:59.158Z,99451.20
2019-03-08T21:24:27.542Z,99448.59
2019-03-08T21:26:55.903Z,99453.59
2019-03-08T21:29:24.356Z,99453.82
2019-03-08T21:31:52.708Z,99455.20
2019-03-08T21:34:21.351Z,99440.92
2019-03-08T21:36:49.945Z,99438.75
2019-03-08T21:39:18.415Z,99446.92
2019-03-08T21:41:46.761Z,99444.45
2019-03-08T21:44:15.218Z,99434.45
2019-03-08T21:46:43.657Z,99430.69
2019-03-08T21:49:12.201Z,99438.67
2019-03-08T21:51:41.670Z,99433.14
2019-03-08T21:54:10.057Z,99426.44
2019-03-08T21:56:39.098Z,99425.89
2019-03-08T21:59:08.483Z,99419.67
2019-03-08T22:01:37.038Z,99424.52
2019-03-08T22:04:07.669Z,99416.84
2019-03-08T22:06:36.388Z,99409.52
2019-03-08T22:09:08.274Z,99406.97
2019-03-08T22:11:39.237Z,99401.35
2019-03-08T22:14:08.368Z,99399.68
2019-03-08T22:16:37.309Z,99396.77
2019-03-08T22:19:05.973Z,99392.89
2019-03-08T22:21:34.572Z,99388.28
2019-03-08T22:24:03.143Z,99391.84
2019-03-08T22:26:34.170Z,99387.52
2019-03-08T22:29:02.657Z,99377.93
2019-03-08T22:31:32.838Z,99381.83
2019-03-08T22:34:03.816Z,99373.54
2019-03-08T22:36:32.958Z,99378.63
2019-03-08T22:39:02.289Z,99375.54
2019-03-08T22:41:32.626Z,99372.09
2019-03-08T22:44:02.750Z,99360.17
2019-03-08T22:46:31.578Z,99372.15
2019-03-08T22:49:00.510Z,99364.85
2019-03-08T22:51:31.101Z,99368.53
2019-03-08T22:54:00.009Z,99367.69
2019-03-08T22:56:29.120Z,99363.00
2019-03-08T22:58:57.725Z,99369.46
2019-03-08T23:01:28.449Z,99362.23
2019-03-08T23:03:57.532Z,99352.54
2019-03-08T23:06:26.344Z,99360.20
2019-03-08T23:08:54.690Z,99358.08
2019-03-08T23:11:23.476Z,99357.91
2019-03-08T23:13:52.327Z,99356.92
2019-03-08T23:16:20.869Z,99357.98
2019-03-08T23:18:49.576Z,99352.55
2019-03-08T23:21:18.605Z,99347.75
2019-03-08T23:23:47.023Z,99335.81
2019-03-08T23:26:15.562Z,99333.14
2019-03-08T23:29:00.755Z,99335.81
2019-03-08T23:31:46.151Z,99329.72
2019-03-08T23:34:15.218Z,99325.69
2019-03-08T23:36:46.749Z,99320.03
2019-03-08T23:39:15.224Z,99336.67
2019-03-08T23:41:43.674Z,99341.59
2019-03-08T23:44:12.681Z,99339.28
2019-03-08T23:46:41.061Z,99334.36
2019-03-08T23:49:09.427Z,99331.02
2019-03-08T23:51:37.865Z,99343.73
2019-03-08T23:54:06.350Z,99330.42
2019-03-08T23:56:35.570Z,99343.81
2019-03-08T23:59:04.103Z,99340.13
